createdAt,value
2022-08-23T00:00:16.141Z,29.74
2022-08-23T00:02:45.743Z,29.69
2022-08-23T00:05:15.252Z,29.69
2022-08-23T00:07:44.231Z,29.66
2022-08-23T00:10:14.872Z,29.63
2022-08-23T00:12:46.645Z,29.60
2022-08-23T00:15:17.368Z,29.58
2022-08-23T00:17:47.413Z,29.48
2022-08-23T00:20:18.424Z,29.50
2022-08-23T00:22:48.062Z,29.56
2022-08-23T00:25:18.700Z,29.59
2022-08-23T00:27:48.519Z,29.55
2022-08-23T00:30:19.397Z,29.55
2022-08-23T00:32:49.827Z,29.53
2022-08-23T00:35:26.872Z,29.53
2022-08-23T00:38:30.419Z,29.48
2022-08-23T00:40:45.543Z,29.49
2022-08-23T00:43:49.517Z,29.45
2022-08-23T00:46:49.940Z,29.43
2022-08-23T00:49:21.157Z,29.44
2022-08-23T00:52:08.839Z,29.41
2022-08-23T00:54:39.902Z,29.39
2022-08-23T00:57:12.103Z,29.37
2022-08-23T01:00:11.707Z,29.36
2022-08-23T01:02:40.631Z,29.36
2022-08-23T01:05:25.827Z,29.36
2022-08-23T01:08:02.529Z,29.35
2022-08-23T01:10:43.167Z,29.32
2022-08-23T01:13:23.397Z,29.33
2022-08-23T01:16:11.293Z,29.31
2022-08-23T01:18:43.374Z,29.35
2022-08-23T01:21:17.057Z,29.38
2022-08-23T01:25:22.765Z,29.24
2022-08-23T01:27:57.578Z,29.25
2022-08-23T01:30:28.517Z,29.25
2022-08-23T01:33:03.564Z,29.21
2022-08-23T01:35:42.337Z,29.17
2022-08-23T01:38:15.170Z,29.19
2022-08-23T01:40:43.698Z,29.14
2022-08-23T01:43:14.095Z,29.16
2022-08-23T01:45:43.053Z,29.13
2022-08-23T01:48:20.637Z,29.13
2022-08-23T01:50:48.808Z,29.17
2022-08-23T01:53:16.942Z,29.15
2022-08-23T01:55:58.122Z,29.14
2022-08-23T01:58:40.720Z,29.12
2022-08-23T02:01:11.920Z,29.14
2022-08-23T02:03:39.766Z,29.13
2022-08-23T02:06:14.817Z,29.10
2022-08-23T02:09:03.988Z,29.10
2022-08-23T02:11:46.125Z,29.05
2022-08-23T02:14:21.189Z,29.02
2022-08-23T02:17:04.501Z,29.01
2022-08-23T02:19:37.330Z,29.00
2022-08-23T02:22:08.249Z,29.00
2022-08-23T02:24:54.057Z,28.99
2022-08-23T02:27:25.880Z,28.99
2022-08-23T02:30:02.041Z,28.95
2022-08-23T02:32:31.558Z,28.92
2022-08-23T02:35:05.117Z,28.93
2022-08-23T02:37:39.298Z,28.83
2022-08-23T02:40:08.554Z,28.86
2022-08-23T02:42:40.345Z,28.88
2022-08-23T02:45:13.592Z,28.88
2022-08-23T02:48:02.571Z,28.85
2022-08-23T02:50:45.139Z,28.84
2022-08-23T02:53:12.997Z,28.83
2022-08-23T02:55:45.823Z,28.85
2022-08-23T02:58:21.642Z,28.79
2022-08-23T03:00:53.245Z,28.81
2022-08-23T03:03:23.945Z,28.71
2022-08-23T03:05:51.528Z,28.75
2022-08-23T03:08:23.219Z,28.72
2022-08-23T03:10:52.935Z,28.68
2022-08-23T03:13:21.516Z,28.67
2022-08-23T03:15:50.891Z,28.64
2022-08-23T03:18:18.559Z,28.65
2022-08-23T03:20:52.283Z,28.65
2022-08-23T03:23:19.746Z,28.68
2022-08-23T03:25:47.419Z,28.67
2022-08-23T03:28:22.480Z,28.64
2022-08-23T03:30:50.541Z,28.62
2022-08-23T03:33:18.529Z,28.61
2022-08-23T03:35:47.932Z,28.63
2022-08-23T03:38:16.495Z,28.61
2022-08-23T03:40:44.727Z,28.61
2022-08-23T03:43:17.941Z,28.61
2022-08-23T03:45:45.464Z,28.55
2022-08-23T03:48:15.561Z,28.53
2022-08-23T03:50:43.310Z,28.49
2022-08-23T03:53:12.248Z,28.48
2022-08-23T03:55:45.588Z,28.44
2022-08-23T03:58:18.309Z,28.44
2022-08-23T04:00:46.100Z,28.36
2022-08-23T04:03:16.741Z,28.38
2022-08-23T04:06:03.773Z,28.31
2022-08-23T04:08:34.791Z,28.32
2022-08-23T04:11:05.137Z,28.25
2022-08-23T04:13:36.836Z,28.29
2022-08-23T04:16:07.496Z,28.28
2022-08-23T04:18:35.250Z,28.27
2022-08-23T04:21:10.329Z,28.32
2022-08-23T04:23:42.639Z,28.31
2022-08-23T04:26:14.401Z,28.35
2022-08-23T04:28:43.117Z,28.33
2022-08-23T04:31:11.091Z,28.32
2022-08-23T04:33:44.250Z,28.28
2022-08-23T04:36:15.714Z,28.31
2022-08-23T04:38:43.617Z,28.29
2022-08-23T04:41:34.128Z,28.26
2022-08-23T04:44:01.856Z,28.25
2022-08-23T04:46:33.623Z,28.26
2022-08-23T04:49:02.281Z,28.28
2022-08-23T04:51:32.795Z,28.33
2022-08-23T04:54:00.084Z,28.30
2022-08-23T04:56:59.705Z,28.29
2022-08-23T04:59:27.198Z,28.32
2022-08-23T05:01:54.516Z,28.33
2022-08-23T05:04:26.554Z,28.34
2022-08-23T05:06:54.014Z,28.36
2022-08-23T05:09:22.036Z,28.31
2022-08-23T05:11:51.616Z,28.31
2022-08-23T05:14:19.727Z,28.27
2022-08-23T05:16:50.146Z,28.25
2022-08-23T05:19:19.447Z,28.27
2022-08-23T05:21:47.965Z,28.23
2022-08-23T05:24:16.461Z,28.22
2022-08-23T05:26:46.663Z,28.20
2022-08-23T05:29:14.074Z,28.19
2022-08-23T05:31:56.287Z,28.18
2022-08-23T05:34:26.037Z,28.17
2022-08-23T05:36:56.631Z,28.20
2022-08-23T05:39:36.487Z,28.16
2022-08-23T05:42:12.544Z,28.18
2022-08-23T05:44:40.038Z,28.16
2022-08-23T05:47:12.126Z,28.20
2022-08-23T05:49:56.504Z,28.20
2022-08-23T05:52:27.674Z,28.19
2022-08-23T05:54:56.116Z,28.14
2022-08-23T05:57:38.663Z,28.07
2022-08-23T06:00:16.106Z,28.10
2022-08-23T06:02:47.036Z,28.10
2022-08-23T06:05:16.647Z,28.03
2022-08-23T06:07:48.493Z,28.07
2022-08-23T06:10:24.522Z,28.06
2022-08-23T06:13:03.528Z,28.02
2022-08-23T06:15:32.437Z,28.07
2022-08-23T06:18:02.882Z,28.06
2022-08-23T06:20:34.396Z,28.06
2022-08-23T06:23:08.673Z,28.11
2022-08-23T06:25:42.677Z,28.06
2022-08-23T06:28:15.273Z,28.07
2022-08-23T06:30:43.857Z,28.10
2022-08-23T06:33:14.081Z,28.15
2022-08-23T06:35:41.897Z,28.14
2022-08-23T06:38:13.385Z,28.19
2022-08-23T06:40:54.306Z,28.19
2022-08-23T06:43:30.571Z,28.22
2022-08-23T06:46:23.766Z,28.26
2022-08-23T06:48:54.138Z,28.23
2022-08-23T06:51:36.492Z,28.23
2022-08-23T06:54:20.952Z,28.31
2022-08-23T06:56:52.519Z,28.40
2022-08-23T06:59:28.655Z,28.48
2022-08-23T07:02:28.123Z,28.56
2022-08-23T07:04:58.510Z,28.60
2022-08-23T07:07:44.798Z,28.73
2022-08-23T07:10:16.053Z,28.80
2022-08-23T07:12:44.511Z,28.85
2022-08-23T07:15:16.632Z,28.88
2022-08-23T07:17:45.481Z,28.90
2022-08-23T07:20:16.036Z,28.98
2022-08-23T07:22:45.709Z,28.95
2022-08-23T07:25:17.207Z,28.87
2022-08-23T07:27:49.293Z,28.96
2022-08-23T07:30:24.906Z,28.93
2022-08-23T07:32:52.462Z,29.00
2022-08-23T07:35:22.591Z,28.93
2022-08-23T07:37:56.758Z,29.05
2022-08-23T07:40:30.532Z,29.10
2022-08-23T07:43:04.456Z,29.14
2022-08-23T07:45:39.201Z,29.20
2022-08-23T07:48:10.725Z,29.26
2022-08-23T07:51:07.467Z,29.31
2022-08-23T07:53:38.133Z,29.39
2022-08-23T07:56:10.208Z,29.45
2022-08-23T07:58:58.922Z,29.48
2022-08-23T08:01:56.713Z,29.57
2022-08-23T08:04:29.544Z,29.66
2022-08-23T08:07:18.349Z,29.65
2022-08-23T08:09:49.665Z,29.78
2022-08-23T08:12:17.933Z,29.90
2022-08-23T08:14:52.169Z,30.01
2022-08-23T08:17:29.348Z,30.17
2022-08-23T08:20:15.897Z,30.37
2022-08-23T08:22:59.188Z,30.61
2022-08-23T08:25:48.211Z,30.87
2022-08-23T08:28:18.798Z,31.07
2022-08-23T08:30:48.978Z,31.27
2022-08-23T08:33:16.802Z,31.48
2022-08-23T08:35:56.185Z,31.74
2022-08-23T08:38:38.736Z,31.97
2022-08-23T08:41:20.715Z,32.25
2022-08-23T08:43:56.510Z,32.53
2022-08-23T08:46:39.040Z,32.72
2022-08-23T08:49:14.324Z,33.04
2022-08-23T08:51:57.502Z,33.31
2022-08-23T08:54:26.119Z,33.56
2022-08-23T08:57:02.397Z,33.44
2022-08-23T08:59:59.283Z,33.49
2022-08-23T09:02:36.390Z,33.52
2022-08-23T09:05:16.985Z,33.82
2022-08-23T09:08:04.268Z,34.03
2022-08-23T09:11:08.365Z,34.34
2022-08-23T09:13:56.237Z,34.20
2022-08-23T09:16:36.937Z,34.22
2022-08-23T09:19:05.032Z,34.30
2022-08-23T09:21:55.021Z,34.29
2022-08-23T09:24:23.275Z,34.53
2022-08-23T09:27:20.524Z,34.61
2022-08-23T09:29:58.741Z,34.39
2022-08-23T09:32:43.428Z,34.45
2022-08-23T09:35:25.179Z,34.62
2022-08-23T09:38:16.713Z,34.82
2022-08-23T09:40:51.483Z,34.64
2022-08-23T09:43:26.482Z,34.43
2022-08-23T09:46:02.136Z,34.77
2022-08-23T09:48:40.719Z,35.21
2022-08-23T09:51:34.968Z,35.24
2022-08-23T09:54:11.910Z,35.27
2022-08-23T09:56:48.367Z,34.86
2022-08-23T09:59:27.449Z,35.23
2022-08-23T10:02:06.291Z,35.27
2022-08-23T10:04:47.176Z,35.28
2022-08-23T10:07:30.303Z,35.43
2022-08-23T10:10:17.810Z,35.23
2022-08-23T10:12:49.098Z,35.61
2022-08-23T10:15:21.471Z,35.28
2022-08-23T10:18:43.314Z,35.35
2022-08-23T10:22:00.288Z,35.50
2022-08-23T10:25:21.530Z,35.36
2022-08-23T10:28:42.550Z,34.49
2022-08-23T10:31:38.468Z,35.35
2022-08-23T10:34:41.539Z,35.50
2022-08-23T10:37:40.221Z,35.18
2022-08-23T10:40:23.360Z,35.26
2022-08-23T10:43:02.324Z,34.94
2022-08-23T10:45:35.380Z,35.15
2022-08-23T10:48:32.672Z,35.30
2022-08-23T10:51:11.982Z,35.33
2022-08-23T10:53:56.451Z,35.21
2022-08-23T10:56:28.981Z,35.21
2022-08-23T10:59:24.391Z,35.06
2022-08-23T11:02:02.180Z,35.30
2022-08-23T11:04:59.742Z,35.71
2022-08-23T11:07:41.481Z,35.64
2022-08-23T11:10:26.580Z,35.44
2022-08-23T11:13:06.669Z,35.56
2022-08-23T11:15:49.122Z,35.57
2022-08-23T11:18:44.551Z,35.35
2022-08-23T11:21:34.944Z,35.28
2022-08-23T11:24:06.445Z,35.59
2022-08-23T11:26:41.719Z,35.72
2022-08-23T11:29:28.496Z,35.81
2022-08-23T11:32:38.253Z,36.28
2022-08-23T11:35:43.215Z,35.32
2022-08-23T11:38:17.306Z,34.70
2022-08-23T11:40:57.879Z,34.45
2022-08-23T11:43:42.993Z,34.77
2022-08-23T11:46:27.386Z,35.28
2022-08-23T11:49:14.619Z,35.11
2022-08-23T11:52:08.627Z,35.00
2022-08-23T11:54:42.210Z,34.58
2022-08-23T11:57:21.156Z,34.15
2022-08-23T12:00:02.595Z,34.39
2022-08-23T12:02:42.357Z,34.64
2022-08-23T12:05:18.420Z,34.64
2022-08-23T12:07:55.956Z,34.11
2022-08-23T12:10:44.048Z,34.09
2022-08-23T12:13:23.269Z,34.35
2022-08-23T12:16:17.907Z,34.35
2022-08-23T12:18:58.023Z,33.97
2022-08-23T12:21:32.942Z,34.44
2022-08-23T12:24:14.500Z,35.04
2022-08-23T12:26:47.594Z,34.88
2022-08-23T12:29:17.760Z,35.34
2022-08-23T12:31:58.934Z,35.12
2022-08-23T12:34:40.363Z,35.16
2022-08-23T12:37:13.045Z,35.15
2022-08-23T12:39:50.848Z,34.34
2022-08-23T12:42:29.631Z,34.70
2022-08-23T12:45:06.563Z,34.90
2022-08-23T12:47:46.079Z,34.12
2022-08-23T12:50:15.018Z,34.51
2022-08-23T12:52:42.839Z,34.42
2022-08-23T12:55:19.675Z,34.64
2022-08-23T12:58:02.183Z,34.44
2022-08-23T13:00:39.089Z,34.55
2022-08-23T13:03:38.703Z,33.76
2022-08-23T13:06:11.949Z,34.01
2022-08-23T13:08:41.240Z,33.91
2022-08-23T13:11:10.478Z,34.17
2022-08-23T13:13:40.872Z,34.44
2022-08-23T13:16:47.275Z,33.92
2022-08-23T13:19:34.549Z,33.44
2022-08-23T13:22:20.566Z,34.17
2022-08-23T13:25:28.163Z,34.07
2022-08-23T13:28:26.214Z,33.30
2022-08-23T13:31:08.999Z,33.85
2022-08-23T13:33:40.995Z,33.83
2022-08-23T13:36:16.710Z,33.50
2022-08-23T13:38:47.468Z,33.60
2022-08-23T13:41:38.645Z,33.75
2022-08-23T13:44:19.074Z,33.72
2022-08-23T13:46:48.233Z,33.64
2022-08-23T13:49:24.862Z,33.66
2022-08-23T13:54:50.943Z,33.85
2022-08-23T13:57:22.775Z,33.09
2022-08-23T13:59:54.486Z,33.30
2022-08-23T14:02:24.195Z,33.26
2022-08-23T14:04:54.654Z,32.91
2022-08-23T14:07:21.888Z,32.47
2022-08-23T14:09:55.313Z,33.05
2022-08-23T14:12:28.163Z,33.48
2022-08-23T14:15:13.691Z,33.07
2022-08-23T14:17:56.652Z,32.36
2022-08-23T14:20:43.768Z,32.65
2022-08-23T14:23:14.925Z,33.10
2022-08-23T14:25:51.636Z,33.34
2022-08-23T14:28:21.719Z,33.63
2022-08-23T14:30:59.320Z,32.91
2022-08-23T14:33:49.745Z,32.93
2022-08-23T14:36:23.588Z,33.20
2022-08-23T14:39:03.233Z,32.75
2022-08-23T14:41:34.445Z,33.15
2022-08-23T14:44:15.838Z,33.48
2022-08-23T14:46:52.088Z,33.68
2022-08-23T14:49:41.007Z,33.19
2022-08-23T14:52:19.034Z,32.74
2022-08-23T14:54:55.177Z,33.39
2022-08-23T14:57:26.097Z,33.15
2022-08-23T15:00:25.150Z,33.39
2022-08-23T15:03:17.772Z,33.69
2022-08-23T15:06:18.115Z,33.40
2022-08-23T15:15:10.854Z,33.47
2022-08-23T15:18:05.657Z,33.35
2022-08-23T15:21:03.171Z,33.40
2022-08-23T15:23:42.829Z,33.30
2022-08-23T15:26:33.021Z,33.62
2022-08-23T15:32:32.523Z,33.33
2022-08-23T15:35:12.829Z,33.15
2022-08-23T15:38:13.781Z,33.69
2022-08-23T15:40:55.257Z,32.82
2022-08-23T15:43:35.302Z,33.99
2022-08-23T15:46:21.045Z,33.64
2022-08-23T15:51:54.777Z,33.86
2022-08-23T15:54:25.402Z,33.51
2022-08-23T15:57:14.046Z,33.63
2022-08-23T15:59:51.086Z,33.58
2022-08-23T16:03:13.983Z,33.55
2022-08-23T16:05:46.821Z,33.47
2022-08-23T16:08:35.554Z,33.48
2022-08-23T16:11:17.405Z,33.16
2022-08-23T16:14:03.728Z,33.32
2022-08-23T16:16:41.624Z,32.77
2022-08-23T16:19:16.858Z,33.19
2022-08-23T16:21:48.738Z,32.77
2022-08-23T16:24:22.483Z,32.84
2022-08-23T16:27:02.320Z,32.90
2022-08-23T16:29:39.096Z,33.13
2022-08-23T16:32:13.109Z,32.48
2022-08-23T16:34:45.181Z,32.57
2022-08-23T16:37:18.238Z,32.85
2022-08-23T16:39:54.786Z,32.78
2022-08-23T16:42:29.707Z,32.88
2022-08-23T16:45:02.144Z,32.71
2022-08-23T16:47:38.477Z,31.90
2022-08-23T16:50:28.577Z,32.47
2022-08-23T16:53:10.926Z,32.50
2022-08-23T16:55:49.749Z,32.57
2022-08-23T16:58:23.250Z,32.75
2022-08-23T17:00:56.356Z,32.63
2022-08-23T17:03:28.712Z,32.18
2022-08-23T17:06:04.183Z,32.82
2022-08-23T17:08:47.818Z,32.61
2022-08-23T17:11:20.147Z,32.78
2022-08-23T17:14:09.956Z,32.58
2022-08-23T17:16:45.739Z,32.36
2022-08-23T17:19:16.424Z,32.79
2022-08-23T17:21:58.038Z,32.69
2022-08-23T17:24:33.713Z,31.96
2022-08-23T17:27:05.522Z,31.72
2022-08-23T17:29:37.455Z,32.39
2022-08-23T17:32:10.961Z,32.22
2022-08-23T17:34:42.840Z,32.06
2022-08-23T17:37:35.254Z,32.34
2022-08-23T17:40:09.975Z,31.97
2022-08-23T17:42:49.363Z,31.91
2022-08-23T17:45:20.905Z,31.68
2022-08-23T17:47:59.096Z,32.07
2022-08-23T17:50:37.829Z,31.86
2022-08-23T17:53:18.853Z,32.06
2022-08-23T17:56:10.391Z,31.83
2022-08-23T17:58:50.240Z,32.20
2022-08-23T18:01:20.728Z,32.09
2022-08-23T18:03:54.304Z,32.23
2022-08-23T18:06:39.756Z,32.34
2022-08-23T18:09:10.447Z,32.20
2022-08-23T18:11:39.515Z,32.46
2022-08-23T18:14:14.207Z,31.84
2022-08-23T18:16:44.108Z,32.19
2022-08-23T18:19:24.889Z,32.41
2022-08-23T18:21:58.592Z,32.19
2022-08-23T18:24:32.447Z,32.15
2022-08-23T18:27:27.433Z,32.47
2022-08-23T18:30:00.557Z,32.34
2022-08-23T18:32:29.046Z,32.32
2022-08-23T18:35:06.990Z,32.16
2022-08-23T18:37:38.260Z,32.16
2022-08-23T18:40:29.821Z,32.14
2022-08-23T18:43:10.715Z,31.83
2022-08-23T18:45:45.045Z,32.12
2022-08-23T18:48:19.693Z,32.05
2022-08-23T18:50:53.502Z,31.97
2022-08-23T18:53:33.916Z,32.06
2022-08-23T18:56:14.656Z,31.89
2022-08-23T18:58:51.283Z,31.87
2022-08-23T19:01:36.527Z,31.88
2022-08-23T19:04:19.251Z,31.75
2022-08-23T19:06:54.856Z,31.74
2022-08-23T19:09:25.685Z,31.31
2022-08-23T19:12:02.593Z,31.59
2022-08-23T19:14:35.995Z,31.55
2022-08-23T19:17:18.727Z,31.75
2022-08-23T19:19:56.098Z,31.46
2022-08-23T19:22:38.016Z,31.62
2022-08-23T19:25:11.696Z,31.64
2022-08-23T19:27:52.692Z,31.80
2022-08-23T19:30:22.999Z,31.71
2022-08-23T19:32:55.367Z,31.68
2022-08-23T19:35:25.818Z,31.19
2022-08-23T19:38:00.368Z,31.48
2022-08-23T19:40:32.544Z,31.25
2022-08-23T19:43:09.012Z,31.45
2022-08-23T19:45:41.175Z,31.25
2022-08-23T19:48:21.122Z,31.28
2022-08-23T19:50:58.766Z,31.08
2022-08-23T19:53:27.168Z,31.26
2022-08-23T19:56:02.097Z,31.47
2022-08-23T19:58:36.837Z,31.38
2022-08-23T20:01:23.328Z,31.39
2022-08-23T20:04:02.994Z,31.23
2022-08-23T20:06:39.067Z,31.22
2022-08-23T20:09:27.099Z,31.40
2022-08-23T20:12:07.096Z,31.25
2022-08-23T20:14:53.543Z,31.04
2022-08-23T20:17:27.543Z,31.17
2022-08-23T20:20:00.656Z,31.09
2022-08-23T20:23:01.516Z,31.05
2022-08-23T20:25:32.422Z,31.12
2022-08-23T20:28:07.846Z,30.66
2022-08-23T20:30:43.412Z,30.65
2022-08-23T20:33:17.146Z,30.91
2022-08-23T20:35:57.053Z,30.99
2022-08-23T20:38:34.228Z,31.04
2022-08-23T20:41:09.216Z,31.07
2022-08-23T20:43:49.759Z,30.98
2022-08-23T20:46:20.821Z,31.04
2022-08-23T20:48:52.213Z,31.02
2022-08-23T20:51:28.134Z,31.18
2022-08-23T20:54:05.684Z,31.09
2022-08-23T20:56:44.426Z,31.26
2022-08-23T20:59:17.475Z,31.12
2022-08-23T21:01:51.656Z,31.09
2022-08-23T21:04:34.825Z,30.99
2022-08-23T21:07:09.885Z,30.84
2022-08-23T21:09:47.467Z,30.75
2022-08-23T21:12:24.461Z,30.77
2022-08-23T21:15:00.658Z,30.71
2022-08-23T21:17:44.064Z,30.81
2022-08-23T21:20:16.593Z,30.71
2022-08-23T21:22:46.171Z,30.74
2022-08-23T21:25:23.000Z,30.91
2022-08-23T21:28:05.711Z,30.93
2022-08-23T21:30:43.731Z,30.77
2022-08-23T21:33:23.751Z,31.02
2022-08-23T21:36:00.067Z,30.79
2022-08-23T21:38:33.007Z,30.62
2022-08-23T21:41:09.299Z,30.65
2022-08-23T21:43:41.005Z,30.83
2022-08-23T21:46:11.088Z,30.75
2022-08-23T21:48:39.105Z,30.90
2022-08-23T21:51:09.478Z,30.88
2022-08-23T21:53:42.030Z,30.91
2022-08-23T21:56:24.055Z,30.83
2022-08-23T21:59:04.808Z,30.80
2022-08-23T22:01:37.179Z,30.82
2022-08-23T22:04:13.251Z,30.81
2022-08-23T22:06:49.331Z,30.84
2022-08-23T22:09:27.946Z,30.95
2022-08-23T22:12:00.809Z,30.87
2022-08-23T22:14:37.782Z,30.94
2022-08-23T22:17:08.836Z,30.99
2022-08-23T22:19:49.381Z,30.94
2022-08-23T22:22:20.586Z,30.88
2022-08-23T22:24:59.394Z,30.87
2022-08-23T22:27:32.309Z,30.94
2022-08-23T22:30:09.130Z,30.96
2022-08-23T22:32:42.135Z,30.88
2022-08-23T22:35:20.490Z,30.95
2022-08-23T22:38:12.657Z,31.06
2022-08-23T22:41:01.434Z,30.88
2022-08-23T22:43:42.098Z,30.78
2022-08-23T22:46:21.467Z,30.74
2022-08-23T22:48:59.517Z,30.39
2022-08-23T22:51:38.867Z,30.68
2022-08-23T22:54:15.628Z,30.67
2022-08-23T22:56:54.283Z,30.77
2022-08-23T22:59:45.427Z,30.51
2022-08-23T23:02:16.845Z,30.54
2022-08-23T23:04:46.344Z,30.71
2022-08-23T23:07:47.115Z,30.77
2022-08-23T23:10:21.402Z,30.74
2022-08-23T23:12:56.324Z,30.73
2022-08-23T23:15:26.910Z,30.54
2022-08-23T23:17:54.507Z,30.69
2022-08-23T23:20:40.642Z,30.64
2022-08-23T23:23:23.518Z,30.42
2022-08-23T23:25:54.083Z,30.34
2022-08-23T23:28:28.234Z,30.54
2022-08-23T23:30:59.638Z,30.54
2022-08-23T23:33:36.366Z,30.51
2022-08-23T23:36:04.095Z,30.67
2022-08-23T23:38:45.319Z,30.58
2022-08-23T23:41:13.897Z,30.63
2022-08-23T23:43:44.670Z,30.55
2022-08-23T23:46:15.080Z,30.48
2022-08-23T23:48:51.532Z,30.60
2022-08-23T23:51:23.219Z,30.43
2022-08-23T23:54:01.042Z,30.48
2022-08-23T23:56:32.839Z,30.59
